createdAt,value
2023-02-22T00:00:50.150Z,43.78
2023-02-22T00:02:10.727Z,44.75
2023-02-22T00:03:08.150Z,44.48
2023-02-22T00:04:06.859Z,45.79
2023-02-22T00:05:03.508Z,44.55
2023-02-22T00:06:04.316Z,44.57
2023-02-22T00:07:02.070Z,43.96
2023-02-22T00:08:00.927Z,43.54
2023-02-22T00:08:58.682Z,44.09
2023-02-22T00:09:56.923Z,44.00
2023-02-22T00:10:53.520Z,43.29
2023-02-22T00:11:50.218Z,43.22
2023-02-22T00:12:50.834Z,43.73
2023-02-22T00:13:50.566Z,43.50
2023-02-22T00:14:47.196Z,44.36
2023-02-22T00:15:44.375Z,44.25
2023-02-22T00:16:41.228Z,44.59
2023-02-22T00:17:37.840Z,46.02
2023-02-22T00:18:34.465Z,47.48
2023-02-22T00:19:31.347Z,45.34
2023-02-22T00:20:28.484Z,44.33
2023-02-22T00:21:25.100Z,46.02
2023-02-22T00:22:21.736Z,45.48
2023-02-22T00:23:21.126Z,46.87
2023-02-22T00:24:23.387Z,46.37
2023-02-22T00:25:21.213Z,44.49
2023-02-22T00:26:20.718Z,43.83
2023-02-22T00:27:17.365Z,43.42
2023-02-22T00:28:15.292Z,44.67
2023-02-22T00:29:11.969Z,45.12
2023-02-22T00:30:09.571Z,44.81
2023-02-22T00:31:06.847Z,43.87
2023-02-22T00:32:03.511Z,42.45
2023-02-22T00:33:00.952Z,42.52
2023-02-22T00:33:57.494Z,44.60
2023-02-22T00:34:54.603Z,45.38
2023-02-22T00:35:51.270Z,45.93
2023-02-22T00:36:50.537Z,46.84
2023-02-22T00:37:49.028Z,46.24
2023-02-22T00:38:45.637Z,46.21
2023-02-22T00:39:42.286Z,45.97
2023-02-22T00:40:40.240Z,46.11
2023-02-22T00:41:36.907Z,46.47
2023-02-22T00:42:33.490Z,45.44
2023-02-22T00:43:30.086Z,44.87
2023-02-22T00:44:27.536Z,45.12
2023-02-22T00:45:26.176Z,44.35
2023-02-22T00:46:22.786Z,44.66
2023-02-22T00:47:19.368Z,44.26
2023-02-22T00:48:15.979Z,43.39
2023-02-22T00:49:12.863Z,43.17
2023-02-22T00:50:10.148Z,43.28
2023-02-22T00:51:06.918Z,43.18
2023-02-22T00:52:04.771Z,43.16
2023-02-22T00:53:03.876Z,43.64
2023-02-22T00:54:00.510Z,45.64
2023-02-22T00:54:58.138Z,45.02
2023-02-22T00:55:54.801Z,45.08
2023-02-22T00:56:51.683Z,46.41
2023-02-22T00:57:48.586Z,45.08
2023-02-22T00:58:45.181Z,45.05
2023-02-22T00:59:41.744Z,45.31
2023-02-22T01:00:41.696Z,44.23
2023-02-22T01:01:38.391Z,43.46
2023-02-22T01:02:35.033Z,44.25
2023-02-22T01:03:32.319Z,45.97
2023-02-22T01:04:29.139Z,46.43
2023-02-22T01:05:28.675Z,45.44
2023-02-22T01:06:25.453Z,45.56
2023-02-22T01:07:22.075Z,46.47
2023-02-22T01:08:18.774Z,46.00
2023-02-22T01:09:15.418Z,45.94
2023-02-22T01:10:13.388Z,46.32
2023-02-22T01:11:10.358Z,46.39
2023-02-22T01:12:08.156Z,46.96
2023-02-22T01:13:09.016Z,46.64
2023-02-22T01:14:09.698Z,46.41
2023-02-22T01:15:10.469Z,46.20
2023-02-22T01:16:08.383Z,46.84
2023-02-22T01:17:05.419Z,47.00
2023-02-22T01:18:03.165Z,46.58
2023-02-22T01:19:01.456Z,47.12
2023-02-22T01:19:58.053Z,48.07
2023-02-22T01:20:54.747Z,48.91
2023-02-22T01:21:51.562Z,48.09
2023-02-22T01:22:49.954Z,47.34
2023-02-22T01:23:47.501Z,47.28
2023-02-22T01:24:44.151Z,46.95
2023-02-22T01:25:40.794Z,46.42
2023-02-22T01:26:38.060Z,45.11
2023-02-22T01:27:35.466Z,45.90
2023-02-22T01:28:32.973Z,46.48
2023-02-22T01:29:29.611Z,49.03
2023-02-22T01:30:30.282Z,50.34
2023-02-22T01:31:27.588Z,49.38
2023-02-22T01:32:24.271Z,47.92
2023-02-22T01:33:20.844Z,47.61
2023-02-22T01:34:19.737Z,46.91
2023-02-22T01:35:18.561Z,47.30
2023-02-22T01:36:15.242Z,47.55
2023-02-22T01:37:11.970Z,47.49
2023-02-22T01:38:10.283Z,46.98
2023-02-22T01:39:07.006Z,46.25
2023-02-22T01:40:07.323Z,47.96
2023-02-22T01:41:05.463Z,47.08
2023-02-22T01:42:02.075Z,48.57
2023-02-22T01:43:01.136Z,48.74
2023-02-22T01:43:57.705Z,48.75
2023-02-22T01:45:32.589Z,49.57
2023-02-22T01:46:29.965Z,49.95
2023-02-22T01:47:26.606Z,49.11
2023-02-22T01:48:55.188Z,48.02
2023-02-22T01:49:52.168Z,48.05
2023-02-22T01:50:54.146Z,48.41
2023-02-22T01:51:53.518Z,47.94
2023-02-22T01:52:50.626Z,48.12
2023-02-22T01:53:55.584Z,47.79
2023-02-22T01:54:57.687Z,47.51
2023-02-22T01:55:55.707Z,47.85
2023-02-22T01:57:17.983Z,48.96
2023-02-22T01:58:19.099Z,49.33
2023-02-22T01:59:15.745Z,48.95
2023-02-22T02:00:17.036Z,49.67
2023-02-22T02:01:15.181Z,48.88
2023-02-22T02:02:13.665Z,48.34
2023-02-22T02:03:18.985Z,48.70
2023-02-22T02:04:20.732Z,48.05
2023-02-22T02:05:17.888Z,47.40
2023-02-22T02:06:15.759Z,47.33
2023-02-22T02:07:14.970Z,47.44
2023-02-22T02:08:27.236Z,48.27
2023-02-22T02:09:36.632Z,48.12
2023-02-22T02:10:34.753Z,47.61
2023-02-22T02:11:32.695Z,47.80
2023-02-22T02:12:32.787Z,47.59
2023-02-22T02:13:29.897Z,47.80
2023-02-22T02:14:27.404Z,47.81
2023-02-22T02:15:31.083Z,47.82
2023-02-22T02:16:56.306Z,48.12
2023-02-22T02:17:54.933Z,47.43
2023-02-22T02:18:52.102Z,47.77
2023-02-22T02:20:07.376Z,48.55
2023-02-22T02:21:19.288Z,49.24
2023-02-22T02:22:31.057Z,48.91
2023-02-22T02:23:45.748Z,50.14
2023-02-22T02:25:05.228Z,50.44
2023-02-22T02:26:35.711Z,50.97
2023-02-22T02:27:51.336Z,50.08
2023-02-22T02:29:16.245Z,49.19
2023-02-22T02:30:43.996Z,49.20
2023-02-22T02:32:31.927Z,51.47
2023-02-22T02:33:57.104Z,50.58
2023-02-22T02:35:08.804Z,48.58
2023-02-22T02:36:12.997Z,49.48
2023-02-22T02:37:27.529Z,50.77
2023-02-22T02:38:36.214Z,50.09
2023-02-22T02:39:46.567Z,50.52
2023-02-22T02:40:58.557Z,51.11
2023-02-22T02:41:57.648Z,50.46
2023-02-22T02:42:54.176Z,50.61
2023-02-22T02:44:00.682Z,50.99
2023-02-22T02:45:16.019Z,51.00
2023-02-22T02:46:23.888Z,50.11
2023-02-22T02:47:30.153Z,49.21
2023-02-22T02:48:28.965Z,48.97
2023-02-22T02:49:41.978Z,49.21
2023-02-22T02:50:42.785Z,48.85
2023-02-22T02:51:44.693Z,49.13
2023-02-22T02:52:42.243Z,48.83
2023-02-22T02:53:43.464Z,49.12
2023-02-22T02:54:41.410Z,51.21
2023-02-22T02:55:38.410Z,49.59
2023-02-22T02:56:35.498Z,50.01
2023-02-22T02:57:32.358Z,50.26
2023-02-22T02:58:28.981Z,50.55
2023-02-22T02:59:29.085Z,51.17
2023-02-22T03:00:30.484Z,50.94
2023-02-22T03:01:27.069Z,50.36
2023-02-22T03:02:34.681Z,50.46
2023-02-22T03:03:56.400Z,50.96
2023-02-22T03:05:07.462Z,52.14
2023-02-22T03:06:13.441Z,51.71
2023-02-22T03:07:33.480Z,50.95
2023-02-22T03:08:57.025Z,50.23
2023-02-22T03:10:21.383Z,50.20
2023-02-22T03:12:02.181Z,50.80
2023-02-22T03:13:12.716Z,49.78
2023-02-22T03:14:24.972Z,51.13
2023-02-22T03:15:51.429Z,50.92
2023-02-22T03:17:00.620Z,51.15
2023-02-22T03:18:02.836Z,51.10
2023-02-22T03:19:08.943Z,51.86
2023-02-22T03:20:31.522Z,51.45
2023-02-22T03:21:47.001Z,52.05
2023-02-22T03:22:57.499Z,52.27
2023-02-22T03:24:03.995Z,52.05
2023-02-22T03:25:15.246Z,51.58
2023-02-22T03:26:19.575Z,51.35
2023-02-22T03:27:43.568Z,51.65
2023-02-22T03:28:43.166Z,51.71
2023-02-22T03:29:43.158Z,52.36
2023-02-22T03:30:48.943Z,53.25
2023-02-22T03:31:51.394Z,53.76
2023-02-22T03:32:50.993Z,54.09
2023-02-22T03:34:10.038Z,54.56
2023-02-22T03:35:14.864Z,54.59
2023-02-22T03:36:24.988Z,54.45
2023-02-22T03:37:25.890Z,54.26
2023-02-22T03:38:26.633Z,53.59
2023-02-22T03:39:31.080Z,54.59
2023-02-22T03:40:43.460Z,54.86
2023-02-22T03:41:40.695Z,54.87
2023-02-22T03:42:38.823Z,55.41
2023-02-22T03:43:42.539Z,54.91
2023-02-22T03:44:41.771Z,54.87
2023-02-22T03:45:40.667Z,54.80
2023-02-22T03:46:40.669Z,54.72
2023-02-22T03:47:52.981Z,54.82
2023-02-22T03:49:20.158Z,55.08
2023-02-22T03:50:21.388Z,53.84
2023-02-22T03:51:18.925Z,51.83
2023-02-22T03:52:15.864Z,52.62
2023-02-22T03:53:12.557Z,53.85
2023-02-22T03:54:16.417Z,54.25
2023-02-22T03:55:17.748Z,56.00
2023-02-22T03:56:22.243Z,55.67
2023-02-22T03:57:29.398Z,55.96
2023-02-22T03:58:31.578Z,55.70
2023-02-22T03:59:28.341Z,56.04
2023-02-22T04:00:30.656Z,56.76
2023-02-22T04:01:27.266Z,57.25
2023-02-22T04:02:23.837Z,57.08
2023-02-22T04:03:22.070Z,56.52
2023-02-22T04:04:18.833Z,56.13
2023-02-22T04:05:15.817Z,55.83
2023-02-22T04:06:12.427Z,55.61
2023-02-22T04:07:09.002Z,54.79
2023-02-22T04:08:06.477Z,54.69
2023-02-22T04:09:03.128Z,54.92
2023-02-22T04:09:59.811Z,55.31
2023-02-22T04:10:56.448Z,56.10
2023-02-22T04:11:53.008Z,57.62
2023-02-22T04:12:50.903Z,57.78
2023-02-22T04:13:47.575Z,57.50
2023-02-22T04:14:44.484Z,57.79
2023-02-22T04:15:41.160Z,57.42
2023-02-22T04:16:37.774Z,57.38
2023-02-22T04:17:34.406Z,58.00
2023-02-22T04:18:31.014Z,57.32
2023-02-22T04:19:27.634Z,57.29
2023-02-22T04:20:25.675Z,56.67
2023-02-22T04:21:22.629Z,56.50
2023-02-22T04:22:19.375Z,56.56
2023-02-22T04:23:17.026Z,56.61
2023-02-22T04:24:14.074Z,56.92
2023-02-22T04:25:10.741Z,57.89
2023-02-22T04:26:07.462Z,58.07
2023-02-22T04:27:04.077Z,57.36
2023-02-22T04:28:00.608Z,56.94
2023-02-22T04:28:57.138Z,56.60
2023-02-22T04:29:53.787Z,56.54
2023-02-22T04:30:50.425Z,57.67
2023-02-22T04:31:47.199Z,56.05
2023-02-22T04:32:43.905Z,55.72
2023-02-22T04:33:40.436Z,57.68
2023-02-22T04:34:37.078Z,56.87
2023-02-22T04:35:35.497Z,57.15
2023-02-22T04:36:32.726Z,57.24
2023-02-22T04:37:29.395Z,57.70
2023-02-22T04:38:26.827Z,57.77
2023-02-22T04:39:23.498Z,58.64
2023-02-22T04:40:20.282Z,59.54
2023-02-22T04:41:19.025Z,59.01
2023-02-22T04:42:15.794Z,57.71
2023-02-22T04:43:12.416Z,57.99
2023-02-22T04:44:09.174Z,58.54
2023-02-22T04:45:08.028Z,59.52
2023-02-22T04:46:04.909Z,58.79
2023-02-22T04:47:01.570Z,58.13
2023-02-22T04:47:58.475Z,57.70
2023-02-22T04:48:55.277Z,57.72
2023-02-22T04:49:52.032Z,58.21
2023-02-22T04:50:48.703Z,58.11
2023-02-22T04:51:45.734Z,58.58
2023-02-22T04:52:42.408Z,59.49
2023-02-22T04:53:39.016Z,59.79
2023-02-22T04:54:35.632Z,60.92
2023-02-22T04:55:32.268Z,61.04
2023-02-22T04:56:28.863Z,60.62
2023-02-22T04:57:25.637Z,58.86
2023-02-22T04:58:22.269Z,58.86
2023-02-22T04:59:19.835Z,58.83
2023-02-22T05:00:18.885Z,59.26
2023-02-22T05:01:16.694Z,59.74
2023-02-22T05:02:13.642Z,60.37
2023-02-22T05:03:10.170Z,59.28
2023-02-22T05:04:07.847Z,57.80
2023-02-22T05:05:04.754Z,57.22
2023-02-22T05:06:01.628Z,58.25
2023-02-22T05:06:58.246Z,57.16
2023-02-22T05:07:54.807Z,56.93
2023-02-22T05:08:51.427Z,56.91
2023-02-22T05:09:48.026Z,57.25
2023-02-22T05:10:47.033Z,57.53
2023-02-22T05:11:43.604Z,57.97
2023-02-22T05:12:40.535Z,57.24
2023-02-22T05:13:37.087Z,57.12
2023-02-22T05:14:33.892Z,57.97
2023-02-22T05:15:30.453Z,58.13
2023-02-22T05:16:27.126Z,59.73
2023-02-22T05:17:23.815Z,58.85
2023-02-22T05:18:20.969Z,57.79
2023-02-22T05:19:17.696Z,57.37
2023-02-22T05:20:35.071Z,56.73
2023-02-22T05:21:31.744Z,56.81
2023-02-22T05:22:28.547Z,56.39
2023-02-22T05:23:25.121Z,56.51
2023-02-22T05:24:21.786Z,56.40
2023-02-22T05:25:20.439Z,56.64
2023-02-22T05:26:17.045Z,56.63
2023-02-22T05:27:13.828Z,56.48
2023-02-22T05:28:17.837Z,56.04
2023-02-22T05:29:14.511Z,56.48
2023-02-22T05:30:12.044Z,56.41
2023-02-22T05:31:08.916Z,56.86
2023-02-22T05:32:06.805Z,56.82
2023-02-22T05:33:03.490Z,55.95
2023-02-22T05:34:00.186Z,55.83
2023-02-22T05:34:56.802Z,56.18
2023-02-22T05:35:56.066Z,55.42
2023-02-22T05:36:52.792Z,54.50
2023-02-22T05:37:50.820Z,54.70
2023-02-22T05:38:47.473Z,54.55
2023-02-22T05:39:46.518Z,54.16
2023-02-22T05:40:43.497Z,54.24
2023-02-22T05:41:40.190Z,54.02
2023-02-22T05:42:36.730Z,54.44
2023-02-22T05:43:33.446Z,54.63
2023-02-22T05:44:30.082Z,54.83
2023-02-22T05:45:28.048Z,54.17
2023-02-22T05:46:25.164Z,54.04
2023-02-22T05:47:21.860Z,53.84
2023-02-22T05:48:18.525Z,54.71
2023-02-22T05:49:15.846Z,54.31
2023-02-22T05:50:13.222Z,53.89
2023-02-22T05:51:10.749Z,53.34
2023-02-22T05:52:07.326Z,53.03
2023-02-22T05:53:05.661Z,52.97
2023-02-22T05:54:02.299Z,53.18
2023-02-22T05:54:58.849Z,54.29
2023-02-22T05:55:55.572Z,54.19
2023-02-22T05:56:52.166Z,54.55
2023-02-22T05:57:49.255Z,55.28
2023-02-22T05:58:45.904Z,56.13
2023-02-22T05:59:43.202Z,55.69
2023-02-22T06:00:39.825Z,55.38
2023-02-22T06:01:36.346Z,54.89
2023-02-22T06:02:33.570Z,53.66
2023-02-22T06:03:30.139Z,53.43
2023-02-22T06:04:27.936Z,53.15
2023-02-22T06:05:25.176Z,53.32
2023-02-22T06:06:22.448Z,52.67
2023-02-22T06:07:19.251Z,52.89
2023-02-22T06:08:16.055Z,52.71
2023-02-22T06:09:12.633Z,53.18
2023-02-22T06:10:09.326Z,53.24
2023-02-22T06:11:05.990Z,52.90
2023-02-22T06:12:02.650Z,52.72
2023-02-22T06:13:00.475Z,52.21
2023-02-22T06:13:57.114Z,51.83
2023-02-22T06:14:53.670Z,51.54
2023-02-22T06:15:50.349Z,52.09
2023-02-22T06:16:53.095Z,52.76
2023-02-22T06:17:50.404Z,51.87
2023-02-22T06:18:48.158Z,51.51
2023-02-22T06:19:44.783Z,52.22
2023-02-22T06:20:41.543Z,51.98
2023-02-22T06:21:38.160Z,51.58
2023-02-22T06:22:34.813Z,51.46
2023-02-22T06:23:31.433Z,51.10
2023-02-22T06:24:28.057Z,50.81
2023-02-22T06:25:28.765Z,51.10
2023-02-22T06:26:25.367Z,50.66
2023-02-22T06:27:21.944Z,50.86
2023-02-22T06:28:18.497Z,50.52
2023-02-22T06:29:15.040Z,50.80
2023-02-22T06:30:13.459Z,50.52
2023-02-22T06:31:10.165Z,50.47
2023-02-22T06:32:06.875Z,50.18
2023-02-22T06:33:03.610Z,49.89
2023-02-22T06:34:00.248Z,49.85
2023-02-22T06:34:56.802Z,50.08
2023-02-22T06:35:53.533Z,50.53
2023-02-22T06:36:50.365Z,50.77
2023-02-22T06:37:47.990Z,50.80
2023-02-22T06:38:44.623Z,50.93
2023-02-22T06:39:41.302Z,50.59
2023-02-22T06:40:37.963Z,50.67
2023-02-22T06:41:37.636Z,50.91
2023-02-22T06:42:34.345Z,51.33
2023-02-22T06:43:30.962Z,51.17
2023-02-22T06:44:27.579Z,51.25
2023-02-22T06:45:24.278Z,51.42
2023-02-22T06:46:21.877Z,51.72
2023-02-22T06:47:18.718Z,51.66
2023-02-22T06:48:15.282Z,51.63
2023-02-22T06:49:13.501Z,52.00
2023-02-22T06:50:28.992Z,51.88
2023-02-22T06:51:27.043Z,51.67
2023-02-22T06:52:24.090Z,51.39
2023-02-22T06:53:20.634Z,51.45
2023-02-22T06:54:17.195Z,51.07
2023-02-22T06:55:18.586Z,51.51
2023-02-22T06:56:15.129Z,51.39
2023-02-22T06:57:11.747Z,51.71
2023-02-22T06:58:08.403Z,50.94
2023-02-22T06:59:05.038Z,50.76
2023-02-22T07:00:01.590Z,50.07
2023-02-22T07:00:58.209Z,50.34
2023-02-22T07:01:54.803Z,50.57
2023-02-22T07:02:52.456Z,50.53
2023-02-22T07:03:50.028Z,49.73
2023-02-22T07:04:46.721Z,49.22
2023-02-22T07:05:43.608Z,48.67
2023-02-22T07:06:47.016Z,48.59
2023-02-22T07:07:43.751Z,48.55
2023-02-22T07:08:40.346Z,49.12
2023-02-22T07:09:37.024Z,48.80
2023-02-22T07:10:35.294Z,49.18
2023-02-22T07:11:32.029Z,49.41
2023-02-22T07:12:28.741Z,49.35
2023-02-22T07:13:25.446Z,49.28
2023-02-22T07:14:22.277Z,49.48
2023-02-22T07:15:21.780Z,49.68
2023-02-22T07:16:18.640Z,49.20
2023-02-22T07:17:15.264Z,48.51
2023-02-22T07:18:12.281Z,48.27
2023-02-22T07:19:08.969Z,47.85
2023-02-22T07:20:06.000Z,48.06
2023-02-22T07:21:02.655Z,47.24
2023-02-22T07:21:59.560Z,47.01
2023-02-22T07:22:56.128Z,47.40
2023-02-22T07:23:57.523Z,47.86
2023-02-22T07:24:55.397Z,47.84
2023-02-22T07:25:51.950Z,47.95
2023-02-22T07:26:48.531Z,47.70
2023-02-22T07:27:45.655Z,48.19
2023-02-22T07:28:42.305Z,48.48
2023-02-22T07:29:38.881Z,48.48
2023-02-22T07:30:35.616Z,47.89
2023-02-22T07:31:36.778Z,48.30
2023-02-22T07:32:33.467Z,47.67
2023-02-22T07:33:30.035Z,47.78
2023-02-22T07:34:26.633Z,46.68
2023-02-22T07:35:31.793Z,46.34
2023-02-22T07:36:28.404Z,46.36
2023-02-22T07:37:25.010Z,46.17
2023-02-22T07:38:21.654Z,46.33
2023-02-22T07:39:18.228Z,46.31
2023-02-22T07:40:16.776Z,45.82
2023-02-22T07:41:13.482Z,45.02
2023-02-22T07:42:10.137Z,45.30
2023-02-22T07:43:20.755Z,45.54
2023-02-22T07:44:17.825Z,44.98
2023-02-22T07:45:14.934Z,45.78
2023-02-22T07:46:11.582Z,44.92
2023-02-22T07:47:08.997Z,45.74
2023-02-22T07:48:06.533Z,46.07
2023-02-22T07:49:03.194Z,46.07
2023-02-22T07:49:59.804Z,45.87
2023-02-22T07:50:57.148Z,45.68
2023-02-22T07:51:53.775Z,46.27
2023-02-22T07:52:54.911Z,45.49
2023-02-22T07:53:51.452Z,46.63
2023-02-22T07:54:48.056Z,47.37
2023-02-22T07:55:51.022Z,47.44
2023-02-22T07:56:48.748Z,46.99
2023-02-22T07:57:47.010Z,48.26
2023-02-22T07:58:46.606Z,47.91
2023-02-22T07:59:45.764Z,46.54
2023-02-22T08:00:44.207Z,46.10
2023-02-22T08:01:40.869Z,46.33
2023-02-22T08:02:37.440Z,46.01
2023-02-22T08:03:36.876Z,46.07
2023-02-22T08:04:33.541Z,45.42
2023-02-22T08:05:32.189Z,46.58
2023-02-22T08:06:30.169Z,46.33
2023-02-22T08:07:26.887Z,45.44
2023-02-22T08:08:24.101Z,45.44
2023-02-22T08:09:20.801Z,45.29
2023-02-22T08:10:19.579Z,46.45
2023-02-22T08:11:16.553Z,45.57
2023-02-22T08:12:13.286Z,45.33
2023-02-22T08:13:11.077Z,46.01
2023-02-22T08:14:07.691Z,46.12
2023-02-22T08:15:06.405Z,47.13
2023-02-22T08:16:03.652Z,45.73
2023-02-22T08:17:00.351Z,44.83
2023-02-22T08:17:58.973Z,44.62
2023-02-22T08:18:55.598Z,45.38
2023-02-22T08:19:52.142Z,45.17
2023-02-22T08:20:51.995Z,45.59
2023-02-22T08:21:48.655Z,45.95
2023-02-22T08:22:46.388Z,45.78
2023-02-22T08:23:42.993Z,44.88
2023-02-22T08:24:40.709Z,44.27
2023-02-22T08:25:37.742Z,45.28
2023-02-22T08:26:34.293Z,45.58
2023-02-22T08:27:31.333Z,45.26
2023-02-22T08:28:27.957Z,46.00
2023-02-22T08:29:27.758Z,45.83
2023-02-22T08:30:25.368Z,45.93
2023-02-22T08:31:22.148Z,45.53
2023-02-22T08:32:19.380Z,45.09
2023-02-22T08:33:19.531Z,45.04
2023-02-22T08:34:16.455Z,45.14
2023-02-22T08:35:14.653Z,45.05
2023-02-22T08:36:11.208Z,44.11
2023-02-22T08:37:07.808Z,44.32
2023-02-22T08:38:06.206Z,44.60
2023-02-22T08:39:02.849Z,44.74
2023-02-22T08:39:59.934Z,45.19
2023-02-22T08:40:57.041Z,46.53
2023-02-22T08:41:53.841Z,46.02
2023-02-22T08:42:50.687Z,44.74
2023-02-22T08:43:47.284Z,44.37
2023-02-22T08:44:43.964Z,44.46
2023-02-22T08:45:40.934Z,44.37
2023-02-22T08:46:37.565Z,43.86
2023-02-22T08:47:34.318Z,43.52
2023-02-22T08:48:31.025Z,43.04
2023-02-22T08:49:27.708Z,43.01
2023-02-22T08:50:27.713Z,43.56
2023-02-22T08:51:27.665Z,43.59
2023-02-22T08:52:24.424Z,42.53
2023-02-22T08:53:20.970Z,42.91
2023-02-22T08:54:18.286Z,44.29
2023-02-22T08:55:15.150Z,43.00
2023-02-22T08:56:11.864Z,43.82
2023-02-22T08:57:08.431Z,44.02
2023-02-22T08:58:09.404Z,43.56
2023-02-22T08:59:06.160Z,43.47
2023-02-22T09:00:04.887Z,44.49
2023-02-22T09:01:01.485Z,43.48
2023-02-22T09:01:58.135Z,42.81
2023-02-22T09:02:55.127Z,43.43
2023-02-22T09:03:52.192Z,44.33
2023-02-22T09:04:49.493Z,43.10
2023-02-22T09:05:46.213Z,42.99
2023-02-22T09:06:44.212Z,44.29
2023-02-22T09:07:42.218Z,42.54
2023-02-22T09:08:38.798Z,43.90
2023-02-22T09:09:35.827Z,42.78
2023-02-22T09:10:34.065Z,42.86
2023-02-22T09:11:30.743Z,43.30
2023-02-22T09:12:27.340Z,43.88
2023-02-22T09:13:23.921Z,43.74
2023-02-22T09:14:20.562Z,43.65
2023-02-22T09:15:17.245Z,42.91
2023-02-22T09:16:14.106Z,44.30
2023-02-22T09:17:10.671Z,43.03
2023-02-22T09:18:10.756Z,42.13
2023-02-22T09:19:07.480Z,42.43
2023-02-22T09:20:05.522Z,42.44
2023-02-22T09:21:02.128Z,41.90
2023-02-22T09:22:02.622Z,42.72
2023-02-22T09:22:59.741Z,42.49
2023-02-22T09:23:56.371Z,42.74
2023-02-22T09:24:53.554Z,43.03
2023-02-22T09:25:50.647Z,42.25
2023-02-22T09:26:52.009Z,42.47
2023-02-22T09:27:50.147Z,41.33
2023-02-22T09:28:46.698Z,41.56
2023-02-22T09:29:43.235Z,42.78
2023-02-22T09:30:40.439Z,43.03
2023-02-22T09:31:38.448Z,43.31
2023-02-22T09:32:36.661Z,42.93
2023-02-22T09:33:33.326Z,41.90
2023-02-22T09:34:29.987Z,42.90
2023-02-22T09:35:27.801Z,42.17
2023-02-22T09:36:26.110Z,42.52
2023-02-22T09:37:23.053Z,42.60
2023-02-22T09:38:26.029Z,42.79
2023-02-22T09:39:22.967Z,41.79
2023-02-22T09:40:25.315Z,41.35
2023-02-22T09:41:36.161Z,43.15
2023-02-22T09:42:45.661Z,42.84
2023-02-22T09:43:55.168Z,43.25
2023-02-22T09:45:12.945Z,41.45
2023-02-22T09:46:30.917Z,40.71
2023-02-22T09:47:40.129Z,40.36
2023-02-22T09:48:59.440Z,40.31
2023-02-22T09:50:04.422Z,40.76
2023-02-22T09:51:04.163Z,41.38
2023-02-22T09:53:04.365Z,41.67
2023-02-22T09:54:04.440Z,40.65
2023-02-22T09:55:28.704Z,41.33
2023-02-22T09:56:28.213Z,42.05
2023-02-22T09:57:35.292Z,42.59
2023-02-22T09:58:36.822Z,41.64
2023-02-22T10:00:01.122Z,40.15
2023-02-22T10:01:14.397Z,40.56
2023-02-22T10:02:34.703Z,39.57
2023-02-22T10:03:42.239Z,40.46
2023-02-22T10:04:49.046Z,39.88
2023-02-22T10:05:53.752Z,40.36
2023-02-22T10:07:06.196Z,39.71
2023-02-22T10:08:06.102Z,40.33
2023-02-22T10:09:08.127Z,40.13
2023-02-22T10:10:06.627Z,40.09
2023-02-22T10:11:13.047Z,38.89
2023-02-22T10:12:20.395Z,38.08
2023-02-22T10:13:28.871Z,38.76
2023-02-22T10:14:47.031Z,39.15
2023-02-22T10:15:51.607Z,38.09
2023-02-22T10:16:57.421Z,38.80
2023-02-22T10:17:57.036Z,38.93
2023-02-22T10:19:12.505Z,39.26
2023-02-22T10:20:24.083Z,38.72
2023-02-22T10:21:57.683Z,37.47
2023-02-22T10:22:54.260Z,38.19
2023-02-22T10:24:28.162Z,37.09
2023-02-22T10:25:29.780Z,35.68
2023-02-22T10:26:31.114Z,35.90
2023-02-22T10:27:33.060Z,36.56
2023-02-22T10:28:39.586Z,37.96
2023-02-22T10:30:10.063Z,35.95
2023-02-22T10:31:27.194Z,36.17
2023-02-22T10:32:29.257Z,35.21
2023-02-22T10:33:33.779Z,35.88
2023-02-22T10:34:49.516Z,36.68
2023-02-22T10:35:47.355Z,35.74
2023-02-22T10:36:47.880Z,34.50
2023-02-22T10:37:45.835Z,34.37
2023-02-22T10:38:53.067Z,33.16
2023-02-22T10:39:53.627Z,33.00
2023-02-22T10:41:08.710Z,32.87
2023-02-22T10:42:08.125Z,33.70
2023-02-22T10:43:08.028Z,34.24
2023-02-22T10:44:04.831Z,34.45
2023-02-22T10:45:01.405Z,34.00
2023-02-22T10:46:02.963Z,33.25
2023-02-22T10:47:02.204Z,33.64
2023-02-22T10:48:02.034Z,34.57
2023-02-22T10:49:04.552Z,33.41
2023-02-22T10:50:01.286Z,33.97
2023-02-22T10:51:02.590Z,32.91
2023-02-22T10:52:12.736Z,33.58
2023-02-22T10:53:10.979Z,32.14
2023-02-22T10:54:13.470Z,33.33
2023-02-22T10:55:15.812Z,32.49
2023-02-22T10:56:19.098Z,31.90
2023-02-22T10:57:22.047Z,33.57
2023-02-22T10:58:18.655Z,33.21
2023-02-22T10:59:37.014Z,33.19
2023-02-22T11:00:39.885Z,34.99
2023-02-22T11:01:40.845Z,33.58
2023-02-22T11:02:37.871Z,33.62
2023-02-22T11:03:34.710Z,34.48
2023-02-22T11:04:54.521Z,35.06
2023-02-22T11:05:52.593Z,34.41
2023-02-22T11:07:09.181Z,33.98
2023-02-22T11:08:21.060Z,34.10
2023-02-22T11:09:22.523Z,34.45
2023-02-22T11:10:31.516Z,33.30
2023-02-22T11:11:29.460Z,32.91
2023-02-22T11:12:33.418Z,33.51
2023-02-22T11:13:36.941Z,32.91
2023-02-22T11:14:33.584Z,33.71
2023-02-22T11:15:30.390Z,34.03
2023-02-22T11:16:28.384Z,32.17
2023-02-22T11:17:32.416Z,32.78
2023-02-22T11:18:35.078Z,33.41
2023-02-22T11:19:33.178Z,32.10
2023-02-22T11:20:38.575Z,32.54
2023-02-22T11:21:35.495Z,32.49
2023-02-22T11:22:41.109Z,33.11
2023-02-22T11:23:41.444Z,32.61
2023-02-22T11:25:07.586Z,33.43
2023-02-22T11:26:17.669Z,34.39
2023-02-22T11:27:31.668Z,33.98
2023-02-22T11:28:31.054Z,34.23
2023-02-22T11:29:34.460Z,34.75
2023-02-22T11:30:36.186Z,33.20
2023-02-22T11:31:32.846Z,34.42
2023-02-22T11:32:29.421Z,34.08
2023-02-22T11:33:29.304Z,35.15
2023-02-22T11:34:33.462Z,33.04
2023-02-22T11:35:38.606Z,33.35
2023-02-22T11:36:40.921Z,33.46
2023-02-22T11:37:37.603Z,34.67
2023-02-22T11:38:39.065Z,34.29
2023-02-22T11:39:35.759Z,34.35
2023-02-22T11:40:34.558Z,34.48
2023-02-22T11:41:36.676Z,34.76
2023-02-22T11:42:33.721Z,34.32
2023-02-22T11:43:31.323Z,33.95
2023-02-22T11:44:32.556Z,33.11
2023-02-22T11:45:29.169Z,34.43
2023-02-22T11:46:32.135Z,33.25
2023-02-22T11:47:29.347Z,33.55
2023-02-22T11:48:28.512Z,35.17
2023-02-22T11:49:34.418Z,32.57
2023-02-22T11:50:33.127Z,33.22
2023-02-22T11:51:45.128Z,34.34
2023-02-22T11:52:47.698Z,33.11
2023-02-22T11:53:56.443Z,33.68
2023-02-22T11:54:58.830Z,32.81
2023-02-22T11:56:36.968Z,32.42
2023-02-22T11:57:53.242Z,33.58
2023-02-22T11:59:03.031Z,32.75
2023-02-22T12:00:27.862Z,32.35
2023-02-22T12:01:43.960Z,33.15
2023-02-22T12:03:15.285Z,33.04
2023-02-22T12:04:15.852Z,33.09
2023-02-22T12:05:30.746Z,33.12
2023-02-22T12:06:27.348Z,32.59
2023-02-22T12:08:03.169Z,32.69
2023-02-22T12:09:09.565Z,31.87
2023-02-22T12:10:25.194Z,32.21
2023-02-22T12:11:46.050Z,32.43
2023-02-22T12:12:46.549Z,32.27
2023-02-22T12:14:05.737Z,31.93
2023-02-22T12:15:13.963Z,32.96
2023-02-22T12:16:24.952Z,33.06
2023-02-22T12:17:59.325Z,33.29
2023-02-22T12:19:20.161Z,33.08
2023-02-22T12:20:28.294Z,33.34
2023-02-22T12:21:29.839Z,33.18
2023-02-22T12:22:35.956Z,33.01
2023-02-22T12:23:54.736Z,32.91
2023-02-22T12:25:09.002Z,32.65
2023-02-22T12:26:44.212Z,31.89
2023-02-22T12:27:49.248Z,33.47
2023-02-22T12:28:53.611Z,33.50
2023-02-22T12:30:01.181Z,33.20
2023-02-22T12:31:18.344Z,34.43
2023-02-22T12:32:24.746Z,32.92
2023-02-22T12:33:28.116Z,33.03
2023-02-22T12:34:30.655Z,32.37
2023-02-22T12:35:28.789Z,32.83
2023-02-22T12:36:34.475Z,32.65
2023-02-22T12:37:47.883Z,32.21
2023-02-22T12:38:52.114Z,32.64
2023-02-22T12:40:23.586Z,33.23
2023-02-22T12:41:38.384Z,32.43
2023-02-22T12:43:10.587Z,33.29
2023-02-22T12:44:14.863Z,31.96
2023-02-22T12:45:17.070Z,33.01
2023-02-22T12:46:25.727Z,32.15
2023-02-22T12:47:31.444Z,33.25
2023-02-22T12:48:31.811Z,31.80
2023-02-22T12:49:40.086Z,32.44
2023-02-22T12:50:37.835Z,32.44
2023-02-22T12:52:20.965Z,32.70
2023-02-22T12:53:26.269Z,33.38
2023-02-22T12:54:31.805Z,32.83
2023-02-22T12:55:45.798Z,31.57
2023-02-22T12:56:46.633Z,32.77
2023-02-22T12:57:54.698Z,32.76
2023-02-22T12:59:14.856Z,31.77
2023-02-22T13:00:26.468Z,32.27
2023-02-22T13:01:37.702Z,31.74
2023-02-22T13:02:44.759Z,31.80
2023-02-22T13:03:43.939Z,32.12
2023-02-22T13:04:40.551Z,31.91
2023-02-22T13:05:40.251Z,32.02
2023-02-22T13:07:01.025Z,31.72
2023-02-22T13:08:06.474Z,31.38
2023-02-22T13:09:41.363Z,30.98
2023-02-22T13:10:49.940Z,31.40
2023-02-22T13:12:06.902Z,30.19
2023-02-22T13:13:24.478Z,31.43